Bloomingdale, MI (49026)

1:42 PM EDT on May 25, 2015 (GMT -0400)
Columbia Twp | | Change Station
CLOSE
Current Station
Personal Weather Station
Location: Grand Junction, MI
Elevation: 665 ft
Nearby Weather Stations

Elev 665 ft 42.41 °N, 86.05 °W | Updated 3 seconds ago

Overcast
Overcast
73.6 °F
Feels Like 73 °F
N
1.8
Wind Variable Wind from NNE
Gusts 3.6 mph

Today
High -- | Low -- °F
--% Chance of Precip.
Yesterday
High -- | Low -- °F
Precip. -- in
6:13 AM 9:08 PM
Waxing Crescent, 50% visible
Pressure 29.92 in
Visibility 10.0 miles
Clouds Scattered Clouds 2900 ft
Mostly Cloudy 3600 ft
Overcast 4600 ft
Heat Index 73 °F
Dew Point 68 °F
Humidity 82%
Rainfall 0.14 in
Snow Depth Not available.
UV 3 out of 12
Pollen 5.50 out of 12
Air Quality Not available.
Flu Activity Sporadic
METAR KLWA 251735Z AUTO 25014G18KT 10SM -RA SCT029 BKN036 OVC046 19/16 A2992 RMK AO2 T01870161

More Conditions Fewer Conditions

Pressure 29.92 in
Visibility 10.0 miles
Clouds Scattered Clouds 2900 ft
Mostly Cloudy 3600 ft
Overcast 4600 ft
Heat Index 73 °F
Dew Point 68 °F
Humidity 82%
Rainfall 0.14 in
Snow Depth Not available.
UV 3 out of 12
Pollen 5.50 out of 12
Air Quality Not available.
Flu Activity Sporadic
METAR KLWA 251735Z AUTO 25014G18KT 10SM -RA SCT029 BKN036 OVC046 19/16 A2992 RMK AO2 T01870161

More Conditions Fewer Conditions

10-Day Weather Forecast

Almanac

Astronomy

May. 25, 2015 Rise Set
Actual Time
Civil Twilight
Nautical Twilight
Astronomical Twilight
Moon
Length of Visible Light
Length of Day
Tomorrow will be .
, % of the Moon is Illuminated

Today's Extremes

State Highs State Lows

Community

WunderPhotos

Upload Photos

1,824,071 photos uploaded!

WunderBlogs® & News

Nearby

Air Quality

  Air Quality AQ Index Pollutant
Not available.

Snow Depth

Station Depth Elevation

Earthquake Activity

City Distance Mag. Time & Date
Minimum magnitude displayed is 2.5.

Coastal Water Temperatures

Place Temperature

Stations

Nearby Weather Stations

Station Location Temp. Windchill Dew Point Humidity Wind Precip. Elev Updated Type